edressit.com alexa rank chart, edressit.com alexa rank daily changes

edressit.com alexa rank chart, edressit.com alexa rank daily changes

edressit.com
Actual rank:
174 897

RANK HISTORY

Date Rank Diff
2018/05/22 174 897 -157 382
2018/05/21 332 279 +73 727
2018/05/20 258 552 -409 712
2018/05/18 668 264 +278 034
2018/05/17 390 230 -12 318
2018/05/16 402 548 -284 869
2018/05/15 687 417 -249 385
2018/05/14 936 802 +555 275
2018/05/13 381 527 +158 031
2018/05/12 223 496 -167 305
2018/05/11 390 801 +158 342
2018/05/10 232 459 -110 957
2018/05/09 343 416 +90 345
2018/05/08 253 071 -706 525
2018/05/07 959 596 +800 916
2018/05/06 158 680 -155 015
2018/05/04 313 695 -202 845
2018/05/02 516 540 +378 392
2018/05/01 138 148 -92 540
2018/04/30 230 688 +74 909
2018/04/29 155 779 -40 965
2018/04/28 196 744 +64 542
2018/04/27 132 202 -799
2018/04/26 133 001 -282 976
2018/04/25 415 977 +226 353
2018/04/24 189 624 +57 422
2018/04/23 132 202 -620 215
2018/04/22 752 417 +435 618
2018/04/21 316 799 -512 677
2018/04/20 829 476 +535 732
2018/04/19 293 744 -141 374
2018/04/18 435 118 +286 265
2018/04/16 148 853 -406 605
2018/04/15 555 458 +23 912
2018/04/14 531 546 +164 133
2018/04/13 367 413 +204 299
2018/04/12 163 114 -40 336
2018/04/11 203 450 -28 508
2018/04/10 231 958 -151 025
2018/04/08 382 983 +79 538
2018/04/07 303 445 +90 771
2018/04/06 212 674 +37 681
2018/04/04 174 993 -160 534
2018/04/03 335 527 +87 828
2018/04/02 247 699 -154 381
2018/04/01 402 080 +140 280
2018/03/31 261 800 -511 036
2018/03/30 772 836 +305 721
2018/03/29 467 115 +100 555
2018/03/25 366 560 +163 486
2018/03/24 203 074 -7 067
2018/03/23 210 141

WIDGET FOR YOUR SITE

DOMAINS WITH THE NEAREST RANK

Domain Rank
static.squarespace.com 174 892
jurnalistul.press 174 893
klorane.com 174 894
priznajem.hr 174 895
noupe.com 174 896
edressit.com 174 897
franciscan.edu 174 898
altermannblog.de 174 899
javbank.com 174 900
tattooblend.com 174 901
vskormi.ru 174 902

DOMAINS WITH THE NEAREST RANK BY TLD .com

Domain Rank
ariadl.com 174 887
ontrack.com 174 889
gimpchat.com 174 890
klorane.com 174 894
noupe.com 174 896
edressit.com 174 897
javbank.com 174 900
tattooblend.com 174 901
kandankjoang.com 174 907
rewritertools.com 174 908
tamillexicon.com 174 910